Pueblo Memorial Airport

Airport
ICAO code: 
KPUB
Summary
ICAO Region: 
NAM
Territory: 
Location: 
Pueblo, Colorado,
Coordinates: 
Aerial View: 
38° 17' 1.508" N, 104° 29' 43.32" W
Airport CFIT: 
Altimeter Temperature Error Correction
Airport LOS: 
Parallel Runway Operation
Airport RE: 
Hot and High Operations
Airport WX: 
Mountain Waves
Metar
Observation
KPUB 040653Z AUTO 19004KT 10SM CLR 00/M06 A3021 RMK AO2 SLP220 T00001056 401561017
Station
Pueblo, Pueblo Memorial Airport
Date/Time
2021-12-04 06:53:00
Wind direction
190°
Wind speed
04 kts
Lowest cloud amount
n/a
Temperature
0°C
Dew point
-5.6°C
Humidity
65%
Weather condition
n/a

Description

Pueblo Memorial Airport is a city owned, public use airport located 9 km east of the central business district of Pueblo, a city in Pueblo County, Colorado.

Climatology

Semi-arid Steppe climate (Köppen climate classification BSk) - Little precipitation, hot summers and cold winters, sometimes with large changes in temperature in a 24 hour period.

Runways

Designator Length Width Surface Rops
08R/26L 1241 23 ASP Yes/Yes
12/30 2520 46 ASP No/No
17/35 2532 46 ASP Yes/Yes
08L/26R 3199 46 ASP Yes/Yes
Airport map: 
Aerial View: 

SKYbrary Partners:

Safety knowledge contributed by: